sensor_id;sensor_type;location;lat;lon;timestamp;pressure;altitude;pressure_sealevel;temperature;humidity
64713;BME280;51140;45.340;5.980;2024-03-22T00:02:15;98905.28;;;12.18;85.95
64713;BME280;51140;45.340;5.980;2024-03-22T00:04:41;98913.47;;;12.12;86.12
64713;BME280;51140;45.340;5.980;2024-03-22T00:07:06;98902.31;;;12.15;86.41
64713;BME280;51140;45.340;5.980;2024-03-22T00:09:31;98906.75;;;12.04;86.17
64713;BME280;51140;45.340;5.980;2024-03-22T00:11:57;98908.94;;;12.12;85.65
64713;BME280;51140;45.340;5.980;2024-03-22T00:14:22;98909.13;;;12.00;85.66
64713;BME280;51140;45.340;5.980;2024-03-22T00:16:48;98903.94;;;12.16;85.20
64713;BME280;51140;45.340;5.980;2024-03-22T00:19:13;98892.22;;;12.22;84.39
64713;BME280;51140;45.340;5.980;2024-03-22T00:21:39;98901.19;;;12.05;85.94
64713;BME280;51140;45.340;5.980;2024-03-22T00:24:04;98901.81;;;12.18;84.57
64713;BME280;51140;45.340;5.980;2024-03-22T00:26:29;98895.31;;;12.03;84.82
64713;BME280;51140;45.340;5.980;2024-03-22T00:28:55;98897.19;;;12.08;84.73
64713;BME280;51140;45.340;5.980;2024-03-22T00:31:23;98889.84;;;12.20;83.95
64713;BME280;51140;45.340;5.980;2024-03-22T00:33:48;98898.34;;;12.17;84.16
64713;BME280;51140;45.340;5.980;2024-03-22T00:36:14;98905.28;;;12.18;83.75
64713;BME280;51140;45.340;5.980;2024-03-22T00:38:39;98901.25;;;12.16;84.14
64713;BME280;51140;45.340;5.980;2024-03-22T00:41:04;98891.16;;;12.18;84.16
64713;BME280;51140;45.340;5.980;2024-03-22T00:43:30;98887.97;;;12.16;84.02
64713;BME280;51140;45.340;5.980;2024-03-22T00:45:55;98886.75;;;12.01;85.46
64713;BME280;51140;45.340;5.980;2024-03-22T00:48:21;98889.41;;;11.96;85.19
64713;BME280;51140;45.340;5.980;2024-03-22T00:50:46;98886.22;;;11.99;84.56
64713;BME280;51140;45.340;5.980;2024-03-22T00:53:12;98884.56;;;11.93;85.03
64713;BME280;51140;45.340;5.980;2024-03-22T00:55:38;98893.84;;;11.86;86.19
64713;BME280;51140;45.340;5.980;2024-03-22T00:58:03;98890.00;;;12.03;84.78
64713;BME280;51140;45.340;5.980;2024-03-22T01:00:29;98895.13;;;11.78;86.28
64713;BME280;51140;45.340;5.980;2024-03-22T01:02:54;98900.47;;;11.83;85.31
64713;BME280;51140;45.340;5.980;2024-03-22T01:05:19;98894.69;;;11.91;84.62
64713;BME280;51140;45.340;5.980;2024-03-22T01:07:45;98890.84;;;11.77;85.41
64713;BME280;51140;45.340;5.980;2024-03-22T01:10:11;98890.34;;;11.80;84.59
64713;BME280;51140;45.340;5.980;2024-03-22T01:12:37;98889.03;;;11.83;84.16
64713;BME280;51140;45.340;5.980;2024-03-22T01:15:03;98888.81;;;11.89;83.26
64713;BME280;51140;45.340;5.980;2024-03-22T01:17:29;98892.06;;;11.96;82.65
64713;BME280;51140;45.340;5.980;2024-03-22T01:19:54;98883.91;;;11.76;85.49
64713;BME280;51140;45.340;5.980;2024-03-22T01:22:20;98884.00;;;11.86;83.39
64713;BME280;51140;45.340;5.980;2024-03-22T01:24:45;98887.22;;;11.88;83.17
64713;BME280;51140;45.340;5.980;2024-03-22T01:27:11;98886.56;;;11.76;84.59
64713;BME280;51140;45.340;5.980;2024-03-22T01:29:37;98885.34;;;11.62;85.29
64713;BME280;51140;45.340;5.980;2024-03-22T01:32:03;98890.81;;;11.72;85.02
64713;BME280;51140;45.340;5.980;2024-03-22T01:34:28;98871.75;;;11.59;85.13
64713;BME280;51140;45.340;5.980;2024-03-22T01:36:53;98881.31;;;11.55;85.71
64713;BME280;51140;45.340;5.980;2024-03-22T01:39:20;98874.72;;;11.62;85.63
64713;BME280;51140;45.340;5.980;2024-03-22T01:41:49;98872.69;;;11.69;83.81
64713;BME280;51140;45.340;5.980;2024-03-22T01:44:14;98861.78;;;11.71;84.31
64713;BME280;51140;45.340;5.980;2024-03-22T01:46:40;98854.41;;;11.78;83.25
64713;BME280;51140;45.340;5.980;2024-03-22T01:49:08;98854.78;;;11.65;83.98
64713;BME280;51140;45.340;5.980;2024-03-22T01:51:34;98852.25;;;11.75;82.89
64713;BME280;51140;45.340;5.980;2024-03-22T01:54:01;98849.78;;;11.68;83.97
64713;BME280;51140;45.340;5.980;2024-03-22T01:56:27;98847.28;;;11.57;83.71
64713;BME280;51140;45.340;5.980;2024-03-22T01:58:53;98843.91;;;11.66;83.20
64713;BME280;51140;45.340;5.980;2024-03-22T02:01:19;98846.19;;;11.84;82.26
64713;BME280;51140;45.340;5.980;2024-03-22T02:03:44;98849.47;;;11.65;83.88
64713;BME280;51140;45.340;5.980;2024-03-22T02:06:09;98848.78;;;11.47;85.18
64713;BME280;51140;45.340;5.980;2024-03-22T02:08:35;98845.34;;;11.79;81.95
64713;BME280;51140;45.340;5.980;2024-03-22T02:11:01;98835.13;;;11.66;83.96
64713;BME280;51140;45.340;5.980;2024-03-22T02:13:26;98843.25;;;11.81;82.13
64713;BME280;51140;45.340;5.980;2024-03-22T02:15:52;98835.34;;;11.59;84.64
64713;BME280;51140;45.340;5.980;2024-03-22T02:18:17;98843.78;;;11.51;84.80
64713;BME280;51140;45.340;5.980;2024-03-22T02:20:42;98829.16;;;11.54;84.52
64713;BME280;51140;45.340;5.980;2024-03-22T02:23:08;98839.25;;;11.52;84.61
64713;BME280;51140;45.340;5.980;2024-03-22T02:25:33;98837.47;;;11.30;86.80
64713;BME280;51140;45.340;5.980;2024-03-22T02:27:58;98844.81;;;11.18;87.07
64713;BME280;51140;45.340;5.980;2024-03-22T02:33:45;98833.41;;;11.49;84.98
64713;BME280;51140;45.340;5.980;2024-03-22T02:36:11;98828.28;;;11.43;85.34
64713;BME280;51140;45.340;5.980;2024-03-22T02:38:36;98820.78;;;11.35;86.19
64713;BME280;51140;45.340;5.980;2024-03-22T02:41:02;98829.75;;;11.29;85.45
64713;BME280;51140;45.340;5.980;2024-03-22T02:43:27;98821.19;;;11.54;84.44
64713;BME280;51140;45.340;5.980;2024-03-22T02:45:52;98823.28;;;11.46;85.46
64713;BME280;51140;45.340;5.980;2024-03-22T02:48:18;98823.28;;;11.20;87.49
64713;BME280;51140;45.340;5.980;2024-03-22T02:50:43;98825.00;;;11.04;87.74
64713;BME280;51140;45.340;5.980;2024-03-22T02:53:08;98823.91;;;11.27;85.61
64713;BME280;51140;45.340;5.980;2024-03-22T02:55:40;98823.56;;;11.18;85.66
64713;BME280;51140;45.340;5.980;2024-03-22T02:58:07;98816.19;;;11.57;83.05
64713;BME280;51140;45.340;5.980;2024-03-22T03:00:39;98819.88;;;11.56;83.25
64713;BME280;51140;45.340;5.980;2024-03-22T03:03:05;98811.69;;;11.31;85.31
64713;BME280;51140;45.340;5.980;2024-03-22T03:05:31;98809.75;;;11.21;86.43
64713;BME280;51140;45.340;5.980;2024-03-22T03:07:56;98803.41;;;11.27;85.17
64713;BME280;51140;45.340;5.980;2024-03-22T03:10:21;98805.28;;;11.27;85.48
64713;BME280;51140;45.340;5.980;2024-03-22T03:12:47;98803.41;;;11.27;84.41
64713;BME280;51140;45.340;5.980;2024-03-22T03:15:12;98808.81;;;11.32;83.98
64713;BME280;51140;45.340;5.980;2024-03-22T03:17:38;98808.75;;;11.59;82.56
64713;BME280;51140;45.340;5.980;2024-03-22T03:20:04;98805.91;;;11.39;83.60
64713;BME280;51140;45.340;5.980;2024-03-22T03:22:33;98803.16;;;11.24;84.33
64713;BME280;51140;45.340;5.980;2024-03-22T03:24:59;98802.72;;;11.37;83.08
64713;BME280;51140;45.340;5.980;2024-03-22T03:27:25;98800.59;;;11.39;82.44
64713;BME280;51140;45.340;5.980;2024-03-22T03:29:50;98801.66;;;11.38;82.82
64713;BME280;51140;45.340;5.980;2024-03-22T03:32:15;98795.06;;;11.45;82.12
64713;BME280;51140;45.340;5.980;2024-03-22T03:34:41;98786.22;;;11.35;83.58
64713;BME280;51140;45.340;5.980;2024-03-22T03:37:06;98795.09;;;11.19;84.21
64713;BME280;51140;45.340;5.980;2024-03-22T03:39:31;98791.75;;;11.28;83.82
64713;BME280;51140;45.340;5.980;2024-03-22T03:41:57;98795.47;;;11.01;85.22
64713;BME280;51140;45.340;5.980;2024-03-22T03:44:22;98793.50;;;10.91;86.58
64713;BME280;51140;45.340;5.980;2024-03-22T03:46:47;98796.94;;;10.65;87.76
64713;BME280;51140;45.340;5.980;2024-03-22T03:49:13;98799.91;;;10.68;87.73
64713;BME280;51140;45.340;5.980;2024-03-22T03:51:38;98792.97;;;10.89;85.03
64713;BME280;51140;45.340;5.980;2024-03-22T03:54:03;98777.69;;;11.01;84.61
64713;BME280;51140;45.340;5.980;2024-03-22T03:56:29;98783.78;;;11.02;84.37
64713;BME280;51140;45.340;5.980;2024-03-22T03:58:54;98781.06;;;10.97;86.69
64713;BME280;51140;45.340;5.980;2024-03-22T04:01:20;98783.44;;;10.93;85.22
64713;BME280;51140;45.340;5.980;2024-03-22T04:03:45;98778.53;;;11.07;86.76
64713;BME280;51140;45.340;5.980;2024-03-22T04:06:11;98777.13;;;10.99;87.01
64713;BME280;51140;45.340;5.980;2024-03-22T04:08:36;98775.06;;;10.79;87.47
64713;BME280;51140;45.340;5.980;2024-03-22T04:11:01;98790.63;;;10.71;88.98
64713;BME280;51140;45.340;5.980;2024-03-22T04:13:28;98784.91;;;10.57;89.49
64713;BME280;51140;45.340;5.980;2024-03-22T04:15:54;98779.28;;;10.54;90.91
64713;BME280;51140;45.340;5.980;2024-03-22T04:18:19;98784.22;;;10.45;91.12
64713;BME280;51140;45.340;5.980;2024-03-22T04:20:55;98776.53;;;10.44;90.37
64713;BME280;51140;45.340;5.980;2024-03-22T04:23:21;98777.88;;;10.46;91.28
64713;BME280;51140;45.340;5.980;2024-03-22T04:28:19;98768.25;;;10.40;90.67
64713;BME280;51140;45.340;5.980;2024-03-22T04:30:58;98771.63;;;10.57;90.14
64713;BME280;51140;45.340;5.980;2024-03-22T04:33:24;98768.88;;;10.47;91.38
64713;BME280;51140;45.340;5.980;2024-03-22T04:35:49;98768.44;;;10.33;92.15
64713;BME280;51140;45.340;5.980;2024-03-22T04:38:15;98771.28;;;10.27;91.57
64713;BME280;51140;45.340;5.980;2024-03-22T04:40:40;98766.53;;;10.29;89.36
64713;BME280;51140;45.340;5.980;2024-03-22T04:43:06;98768.69;;;10.32;88.84
64713;BME280;51140;45.340;5.980;2024-03-22T04:45:31;98775.41;;;10.40;88.86
64713;BME280;51140;45.340;5.980;2024-03-22T04:47:57;98775.72;;;10.43;88.13
64713;BME280;51140;45.340;5.980;2024-03-22T04:50:22;98778.69;;;10.47;89.41
64713;BME280;51140;45.340;5.980;2024-03-22T04:52:47;98780.97;;;10.38;90.50
64713;BME280;51140;45.340;5.980;2024-03-22T04:55:13;98784.59;;;10.32;90.93
64713;BME280;51140;45.340;5.980;2024-03-22T04:57:38;98786.78;;;10.35;91.57
64713;BME280;51140;45.340;5.980;2024-03-22T05:00:04;98787.25;;;10.32;89.99
64713;BME280;51140;45.340;5.980;2024-03-22T05:02:32;98796.41;;;10.41;88.39
64713;BME280;51140;45.340;5.980;2024-03-22T05:04:57;98805.16;;;10.63;86.44
64713;BME280;51140;45.340;5.980;2024-03-22T05:07:22;98807.75;;;10.58;86.84
64713;BME280;51140;45.340;5.980;2024-03-22T05:09:48;98811.47;;;10.57;87.07
64713;BME280;51140;45.340;5.980;2024-03-22T05:12:13;98813.91;;;10.42;89.13
64713;BME280;51140;45.340;5.980;2024-03-22T05:14:39;98811.47;;;10.57;87.36
64713;BME280;51140;45.340;5.980;2024-03-22T05:17:04;98812.19;;;10.74;86.71
64713;BME280;51140;45.340;5.980;2024-03-22T05:19:30;98813.91;;;10.85;85.79
64713;BME280;51140;45.340;5.980;2024-03-22T05:21:56;98820.78;;;10.81;87.48
64713;BME280;51140;45.340;5.980;2024-03-22T05:24:21;98824.19;;;10.55;89.04
64713;BME280;51140;45.340;5.980;2024-03-22T05:26:47;98833.84;;;10.45;89.25
64713;BME280;51140;45.340;5.980;2024-03-22T05:29:12;98841.03;;;10.44;87.83
64713;BME280;51140;45.340;5.980;2024-03-22T05:31:46;98838.94;;;10.46;87.96
64713;BME280;51140;45.340;5.980;2024-03-22T05:34:12;98834.31;;;10.58;88.24
64713;BME280;51140;45.340;5.980;2024-03-22T05:36:37;98835.16;;;10.42;88.62
64713;BME280;51140;45.340;5.980;2024-03-22T05:39:03;98842.38;;;10.47;90.04
64713;BME280;51140;45.340;5.980;2024-03-22T05:41:28;98834.66;;;10.45;88.89
64713;BME280;51140;45.340;5.980;2024-03-22T05:43:53;98840.66;;;10.57;88.86
64713;BME280;51140;45.340;5.980;2024-03-22T05:46:19;98838.13;;;10.67;89.41
64713;BME280;51140;45.340;5.980;2024-03-22T05:48:44;98837.56;;;10.65;89.21
64713;BME280;51140;45.340;5.980;2024-03-22T05:51:09;98841.13;;;10.76;88.12
64713;BME280;51140;45.340;5.980;2024-03-22T05:53:35;98836.34;;;10.51;89.99
64713;BME280;51140;45.340;5.980;2024-03-22T05:56:00;98829.59;;;10.65;91.11
64713;BME280;51140;45.340;5.980;2024-03-22T05:58:25;98833.94;;;10.50;89.24
64713;BME280;51140;45.340;5.980;2024-03-22T06:00:51;98829.06;;;10.63;88.98
64713;BME280;51140;45.340;5.980;2024-03-22T06:03:18;98831.56;;;10.53;89.40
64713;BME280;51140;45.340;5.980;2024-03-22T06:05:43;98822.69;;;10.64;88.51
64713;BME280;51140;45.340;5.980;2024-03-22T06:08:09;98821.78;;;10.75;89.14
64713;BME280;51140;45.340;5.980;2024-03-22T06:10:34;98817.75;;;10.73;87.05
64713;BME280;51140;45.340;5.980;2024-03-22T06:12:59;98818.81;;;10.72;88.17
64713;BME280;51140;45.340;5.980;2024-03-22T06:15:25;98821.81;;;10.80;87.13
64713;BME280;51140;45.340;5.980;2024-03-22T06:17:50;98813.75;;;10.97;86.54
64713;BME280;51140;45.340;5.980;2024-03-22T06:20:16;98811.03;;;11.19;85.26
64713;BME280;51140;45.340;5.980;2024-03-22T06:22:41;98813.63;;;11.09;86.69
64713;BME280;51140;45.340;5.980;2024-03-22T06:25:07;98812.66;;;11.20;84.46
64713;BME280;51140;45.340;5.980;2024-03-22T06:27:32;98807.78;;;11.38;82.54
64713;BME280;51140;45.340;5.980;2024-03-22T06:29:57;98809.25;;;11.56;82.86
64713;BME280;51140;45.340;5.980;2024-03-22T06:32:23;98805.56;;;11.62;81.58
64713;BME280;51140;45.340;5.980;2024-03-22T06:34:48;98812.88;;;11.72;83.73
64713;BME280;51140;45.340;5.980;2024-03-22T06:37:13;98807.78;;;11.70;82.66
64713;BME280;51140;45.340;5.980;2024-03-22T06:39:39;98811.72;;;11.68;84.00
64713;BME280;51140;45.340;5.980;2024-03-22T06:42:04;98821.09;;;11.70;81.47
64713;BME280;51140;45.340;5.980;2024-03-22T06:44:29;98811.88;;;11.83;81.92
64713;BME280;51140;45.340;5.980;2024-03-22T06:46:55;98812.22;;;11.91;84.59
64713;BME280;51140;45.340;5.980;2024-03-22T06:49:20;98809.56;;;11.96;84.40
64713;BME280;51140;45.340;5.980;2024-03-22T06:51:46;98807.81;;;12.07;85.13
64713;BME280;51140;45.340;5.980;2024-03-22T06:54:12;98808.44;;;12.29;85.88
64713;BME280;51140;45.340;5.980;2024-03-22T06:56:43;98801.56;;;11.91;86.14
64713;BME280;51140;45.340;5.980;2024-03-22T06:59:11;98797.00;;;12.34;84.17
64713;BME280;51140;45.340;5.980;2024-03-22T07:01:37;98811.09;;;12.29;85.62
64713;BME280;51140;45.340;5.980;2024-03-22T07:04:02;98799.97;;;12.42;82.56
64713;BME280;51140;45.340;5.980;2024-03-22T07:06:28;98796.56;;;12.47;81.40
64713;BME280;51140;45.340;5.980;2024-03-22T07:08:53;98792.69;;;12.23;80.89
64713;BME280;51140;45.340;5.980;2024-03-22T07:11:19;98789.59;;;12.41;81.14
64713;BME280;51140;45.340;5.980;2024-03-22T07:13:44;98796.06;;;12.60;81.38
64713;BME280;51140;45.340;5.980;2024-03-22T07:16:09;98791.25;;;12.52;77.39
64713;BME280;51140;45.340;5.980;2024-03-22T07:18:35;98793.47;;;12.85;79.33
64713;BME280;51140;45.340;5.980;2024-03-22T07:21:00;98794.00;;;12.87;79.16
64713;BME280;51140;45.340;5.980;2024-03-22T07:23:27;98797.22;;;12.94;77.70
64713;BME280;51140;45.340;5.980;2024-03-22T07:25:53;98791.91;;;13.04;78.03
64713;BME280;51140;45.340;5.980;2024-03-22T07:28:18;98788.50;;;13.19;77.79
64713;BME280;51140;45.340;5.980;2024-03-22T07:30:45;98802.09;;;13.12;79.30
64713;BME280;51140;45.340;5.980;2024-03-22T07:33:13;98804.25;;;13.26;77.55
64713;BME280;51140;45.340;5.980;2024-03-22T07:35:43;98798.38;;;13.24;77.56
64713;BME280;51140;45.340;5.980;2024-03-22T07:38:10;98810.09;;;13.17;80.61
64713;BME280;51140;45.340;5.980;2024-03-22T07:40:35;98806.41;;;13.44;76.79
64713;BME280;51140;45.340;5.980;2024-03-22T07:43:01;98807.47;;;13.43;78.66
64713;BME280;51140;45.340;5.980;2024-03-22T07:45:34;98823.44;;;13.23;78.35
64713;BME280;51140;45.340;5.980;2024-03-22T07:48:00;98812.50;;;13.44;77.90
64713;BME280;51140;45.340;5.980;2024-03-22T07:50:25;98814.38;;;13.84;75.96
64713;BME280;51140;45.340;5.980;2024-03-22T07:52:50;98827.97;;;13.12;79.95
64713;BME280;51140;45.340;5.980;2024-03-22T07:55:17;98819.44;;;13.30;77.99
64713;BME280;51140;45.340;5.980;2024-03-22T07:57:42;98819.72;;;13.54;78.64
64713;BME280;51140;45.340;5.980;2024-03-22T08:00:08;98825.59;;;13.41;79.48
64713;BME280;51140;45.340;5.980;2024-03-22T08:02:35;98837.78;;;13.06;80.96
64713;BME280;51140;45.340;5.980;2024-03-22T08:05:01;98830.88;;;13.10;79.98
64713;BME280;51140;45.340;5.980;2024-03-22T08:07:27;98828.16;;;13.00;80.21
64713;BME280;51140;45.340;5.980;2024-03-22T08:09:52;98829.44;;;12.93;78.86
64713;BME280;51140;45.340;5.980;2024-03-22T08:12:18;98826.53;;;12.89;83.19
64713;BME280;51140;45.340;5.980;2024-03-22T08:14:44;98834.91;;;12.56;82.83
64713;BME280;51140;45.340;5.980;2024-03-22T08:17:10;98832.69;;;12.33;81.60
64713;BME280;51140;45.340;5.980;2024-03-22T08:19:37;98823.94;;;12.42;81.50
64713;BME280;51140;45.340;5.980;2024-03-22T08:22:03;98825.78;;;12.37;83.69
64713;BME280;51140;45.340;5.980;2024-03-22T08:24:29;98821.91;;;12.64;81.39
64713;BME280;51140;45.340;5.980;2024-03-22T08:26:54;98819.75;;;12.56;82.73
64713;BME280;51140;45.340;5.980;2024-03-22T08:29:20;98822.97;;;12.12;82.92
64713;BME280;51140;45.340;5.980;2024-03-22T08:31:45;98819.94;;;12.40;78.13
64713;BME280;51140;45.340;5.980;2024-03-22T08:34:10;98815.75;;;12.54;81.49
64713;BME280;51140;45.340;5.980;2024-03-22T08:36:36;98820.88;;;12.76;81.75
64713;BME280;51140;45.340;5.980;2024-03-22T08:39:01;98821.34;;;12.57;81.31
64713;BME280;51140;45.340;5.980;2024-03-22T08:41:27;98822.50;;;12.82;82.42
64713;BME280;51140;45.340;5.980;2024-03-22T08:43:52;98827.63;;;12.98;81.56
64713;BME280;51140;45.340;5.980;2024-03-22T08:46:18;98821.22;;;12.94;83.33
64713;BME280;51140;45.340;5.980;2024-03-22T08:48:43;98819.88;;;12.92;81.29
64713;BME280;51140;45.340;5.980;2024-03-22T08:51:08;98822.91;;;13.21;81.14
64713;BME280;51140;45.340;5.980;2024-03-22T08:53:34;98822.13;;;13.50;82.60
64713;BME280;51140;45.340;5.980;2024-03-22T08:56:00;98817.59;;;13.71;81.14
64713;BME280;51140;45.340;5.980;2024-03-22T08:58:26;98812.81;;;13.78;76.63
64713;BME280;51140;45.340;5.980;2024-03-22T09:00:51;98805.81;;;14.02;72.26
64713;BME280;51140;45.340;5.980;2024-03-22T09:03:16;98815.28;;;15.18;68.61
64713;BME280;51140;45.340;5.980;2024-03-22T09:05:43;98808.91;;;16.10;67.13
64713;BME280;51140;45.340;5.980;2024-03-22T09:08:08;98799.09;;;16.48;65.73
64713;BME280;51140;45.340;5.980;2024-03-22T09:10:34;98903.50;;;17.29;59.61
64713;BME280;51140;45.340;5.980;2024-03-22T09:12:59;98790.41;;;17.36;64.58
64713;BME280;51140;45.340;5.980;2024-03-22T09:15:25;98881.63;;;17.41;59.12
64713;BME280;51140;45.340;5.980;2024-03-22T09:17:52;98907.63;;;17.22;57.97
64713;BME280;51140;45.340;5.980;2024-03-22T09:20:17;98908.75;;;16.97;56.65
64713;BME280;51140;45.340;5.980;2024-03-22T09:22:42;98798.84;;;17.29;60.34
64713;BME280;51140;45.340;5.980;2024-03-22T09:25:08;98872.81;;;17.35;57.34
64713;BME280;51140;45.340;5.980;2024-03-22T09:27:33;98927.59;;;17.90;55.29
64713;BME280;51140;45.340;5.980;2024-03-22T09:29:59;98780.63;;;17.63;59.86
64713;BME280;51140;45.340;5.980;2024-03-22T09:32:26;98767.94;;;17.83;60.83
64713;BME280;51140;45.340;5.980;2024-03-22T09:34:51;98887.31;;;17.90;56.94
64713;BME280;51140;45.340;5.980;2024-03-22T09:37:17;98958.63;;;17.83;53.71
64713;BME280;51140;45.340;5.980;2024-03-22T09:39:43;98843.41;;;18.27;56.96
64713;BME280;51140;45.340;5.980;2024-03-22T09:42:13;98839.84;;;18.32;57.31
64713;BME280;51140;45.340;5.980;2024-03-22T09:44:47;98830.19;;;18.44;56.48
64713;BME280;51140;45.340;5.980;2024-03-22T09:47:15;98833.72;;;18.58;56.83
64713;BME280;51140;45.340;5.980;2024-03-22T09:49:40;98880.22;;;18.72;55.04
64713;BME280;51140;45.340;5.980;2024-03-22T09:52:09;98880.53;;;18.71;55.02
64713;BME280;51140;45.340;5.980;2024-03-22T09:54:37;98944.47;;;18.60;53.04
64713;BME280;51140;45.340;5.980;2024-03-22T09:57:04;98952.94;;;18.35;52.60
64713;BME280;51140;45.340;5.980;2024-03-22T09:59:29;98993.75;;;18.69;51.05
64713;BME280;51140;45.340;5.980;2024-03-22T10:01:56;98940.72;;;18.89;52.26
64713;BME280;51140;45.340;5.980;2024-03-22T10:04:23;99016.25;;;19.33;49.27
64713;BME280;51140;45.340;5.980;2024-03-22T10:06:49;98986.34;;;18.94;52.46
64713;BME280;51140;45.340;5.980;2024-03-22T10:09:15;98902.28;;;19.24;52.96
64713;BME280;51140;45.340;5.980;2024-03-22T10:11:44;98946.75;;;19.35;50.47
64713;BME280;51140;45.340;5.980;2024-03-22T10:14:09;98943.09;;;19.04;50.58
64713;BME280;51140;45.340;5.980;2024-03-22T10:16:36;98957.53;;;18.94;50.32
64713;BME280;51140;45.340;5.980;2024-03-22T10:19:01;98886.38;;;18.86;52.56
64713;BME280;51140;45.340;5.980;2024-03-22T10:21:27;98955.72;;;18.62;49.61
64713;BME280;51140;45.340;5.980;2024-03-22T10:23:54;98894.25;;;18.69;51.86
64713;BME280;51140;45.340;5.980;2024-03-22T10:26:19;98868.97;;;18.57;52.78
64713;BME280;51140;45.340;5.980;2024-03-22T10:28:45;98964.31;;;18.46;48.92
64713;BME280;51140;45.340;5.980;2024-03-22T10:31:12;98811.97;;;18.41;55.04
64713;BME280;51140;45.340;5.980;2024-03-22T10:33:38;98811.88;;;18.87;54.89
64713;BME280;51140;45.340;5.980;2024-03-22T10:36:04;98882.25;;;19.30;51.50
64713;BME280;51140;45.340;5.980;2024-03-22T10:38:30;98869.38;;;19.54;52.05
64713;BME280;51140;45.340;5.980;2024-03-22T10:40:57;98981.06;;;19.57;47.75
64713;BME280;51140;45.340;5.980;2024-03-22T10:43:24;98858.34;;;19.64;51.75
64713;BME280;51140;45.340;5.980;2024-03-22T10:45:50;98866.13;;;19.88;50.93
64713;BME280;51140;45.340;5.980;2024-03-22T10:48:17;98886.00;;;20.00;50.44
64713;BME280;51140;45.340;5.980;2024-03-22T10:50:43;98914.56;;;19.79;49.54
64713;BME280;51140;45.340;5.980;2024-03-22T10:53:19;98940.22;;;19.99;48.44
64713;BME280;51140;45.340;5.980;2024-03-22T10:55:49;98938.38;;;20.08;47.94
64713;BME280;51140;45.340;5.980;2024-03-22T10:58:22;98942.84;;;19.90;48.01
64713;BME280;51140;45.340;5.980;2024-03-22T11:00:51;98914.44;;;20.07;49.26
64713;BME280;51140;45.340;5.980;2024-03-22T11:03:19;98941.03;;;19.99;46.77
64713;BME280;51140;45.340;5.980;2024-03-22T11:05:46;98883.06;;;20.11;49.21
64713;BME280;51140;45.340;5.980;2024-03-22T11:08:12;98910.25;;;20.00;47.92
64713;BME280;51140;45.340;5.980;2024-03-22T11:10:38;98865.75;;;19.59;49.57
64713;BME280;51140;45.340;5.980;2024-03-22T11:13:04;98872.38;;;19.39;48.52
64713;BME280;51140;45.340;5.980;2024-03-22T11:15:32;98817.91;;;20.09;50.38
64713;BME280;51140;45.340;5.980;2024-03-22T11:17:58;98898.38;;;20.02;47.51
64713;BME280;51140;45.340;5.980;2024-03-22T11:20:25;98832.59;;;19.72;49.96
64713;BME280;51140;45.340;5.980;2024-03-22T11:22:53;98715.91;;;19.93;53.63
64713;BME280;51140;45.340;5.980;2024-03-22T11:25:19;98827.78;;;19.91;48.43
64713;BME280;51140;45.340;5.980;2024-03-22T11:27:46;98786.47;;;20.04;50.11
64713;BME280;51140;45.340;5.980;2024-03-22T11:30:11;98818.19;;;20.07;49.27
64713;BME280;51140;45.340;5.980;2024-03-22T11:32:38;98848.41;;;19.95;49.05
64713;BME280;51140;45.340;5.980;2024-03-22T11:35:13;98834.66;;;19.97;46.97
64713;BME280;51140;45.340;5.980;2024-03-22T11:37:41;98795.50;;;19.99;48.31
64713;BME280;51140;45.340;5.980;2024-03-22T11:40:11;98820.13;;;20.15;48.94
64713;BME280;51140;45.340;5.980;2024-03-22T11:42:41;98774.50;;;20.19;49.18
64713;BME280;51140;45.340;5.980;2024-03-22T11:45:09;98807.31;;;20.21;47.75
64713;BME280;51140;45.340;5.980;2024-03-22T11:47:35;98824.22;;;20.35;47.43
64713;BME280;51140;45.340;5.980;2024-03-22T11:50:01;98850.75;;;20.41;46.84
64713;BME280;51140;45.340;5.980;2024-03-22T11:52:27;98894.28;;;20.57;45.09
64713;BME280;51140;45.340;5.980;2024-03-22T11:54:53;98786.38;;;20.48;48.54
64713;BME280;51140;45.340;5.980;2024-03-22T11:57:22;98821.03;;;20.81;47.30
64713;BME280;51140;45.340;5.980;2024-03-22T11:59:48;98828.06;;;20.99;45.58
64713;BME280;51140;45.340;5.980;2024-03-22T12:02:13;98846.00;;;21.03;44.73
64713;BME280;51140;45.340;5.980;2024-03-22T12:04:43;98876.56;;;21.30;45.68
64713;BME280;51140;45.340;5.980;2024-03-22T12:07:13;98889.38;;;21.07;45.50
64713;BME280;51140;45.340;5.980;2024-03-22T12:09:40;98870.47;;;20.98;43.83
64713;BME280;51140;45.340;5.980;2024-03-22T12:12:08;98827.94;;;21.13;45.97
64713;BME280;51140;45.340;5.980;2024-03-22T12:14:34;98848.28;;;21.19;44.44
64713;BME280;51140;45.340;5.980;2024-03-22T12:17:00;98838.47;;;21.40;44.46
64713;BME280;51140;45.340;5.980;2024-03-22T12:19:25;98852.28;;;21.30;44.90
64713;BME280;51140;45.340;5.980;2024-03-22T12:21:51;98844.81;;;21.35;43.45
64713;BME280;51140;45.340;5.980;2024-03-22T12:24:16;98835.59;;;21.19;44.56
64713;BME280;51140;45.340;5.980;2024-03-22T12:26:41;98853.41;;;21.46;43.15
64713;BME280;51140;45.340;5.980;2024-03-22T12:29:07;98805.91;;;21.45;45.13
64713;BME280;51140;45.340;5.980;2024-03-22T12:31:32;98797.16;;;21.56;44.48
64713;BME280;51140;45.340;5.980;2024-03-22T12:33:58;98900.28;;;21.50;41.26
64713;BME280;51140;45.340;5.980;2024-03-22T12:36:24;98840.84;;;21.33;43.46
64713;BME280;51140;45.340;5.980;2024-03-22T12:38:49;98833.22;;;21.35;43.04
64713;BME280;51140;45.340;5.980;2024-03-22T12:41:14;98836.72;;;21.52;42.22
64713;BME280;51140;45.340;5.980;2024-03-22T12:43:40;98753.13;;;21.47;46.21
64713;BME280;51140;45.340;5.980;2024-03-22T12:46:07;98917.13;;;21.64;40.32
64713;BME280;51140;45.340;5.980;2024-03-22T12:48:33;98878.50;;;21.55;41.04
64713;BME280;51140;45.340;5.980;2024-03-22T12:50:59;98812.88;;;21.54;42.16
64713;BME280;51140;45.340;5.980;2024-03-22T12:53:25;98934.28;;;21.42;39.45
64713;BME280;51140;45.340;5.980;2024-03-22T12:55:50;98948.25;;;21.44;37.61
64713;BME280;51140;45.340;5.980;2024-03-22T12:58:16;99015.25;;;21.25;36.53
64713;BME280;51140;45.340;5.980;2024-03-22T13:00:41;98965.97;;;21.11;37.17